Time;durP1;ratioP1;P1;durP2;ratioP2;P2;SDS_P1;SDS_P2;PMS_P1;PMS_P2;Temp;Humidity;BMP_temperature;BMP_pressure;BME280_temperature;BME280_humidity;BME280_pressure;Samples;Min_cycle;Max_cycle;Signal;HPM_P1;HPM_P2
2021/06/10 00:00:24;;;;;;;5.85;4.65;;;;;;;19.33;62.16;99280.41;5113979;28;20031;-70
2021/06/10 00:02:50;;;;;;;6.53;5.10;;;;;;;19.09;63.29;99276.28;5104759;28;20019;-70
2021/06/10 00:05:19;;;;;;;5.30;4.65;;;;;;;18.90;64.09;99281.00;5113619;28;20432;-70
2021/06/10 00:07:45;;;;;;;5.38;4.88;;;;;;;18.85;63.73;99283.41;5112636;28;20020;-70
2021/06/10 00:10:14;;;;;;;6.53;4.65;;;;;;;18.59;64.01;99288.09;5113707;28;20133;-70
2021/06/10 00:12:40;;;;;;;4.57;4.18;;;;;;;18.87;63.01;99284.63;5113656;28;20094;-70
2021/06/10 00:15:09;;;;;;;6.90;4.13;;;;;;;18.99;62.50;99279.84;5113669;27;20028;-70
2021/06/10 00:17:34;;;;;;;5.93;4.85;;;;;;;19.17;61.86;99277.91;5113443;28;20449;-70
2021/06/10 00:20:00;;;;;;;5.63;4.97;;;;;;;19.18;61.29;99285.19;5113651;28;20016;-70
2021/06/10 00:22:26;;;;;;;5.72;5.13;;;;;;;18.65;62.66;99281.66;5113850;28;20469;-70
2021/06/10 00:24:51;;;;;;;5.68;4.10;;;;;;;18.42;63.53;99273.44;5113549;28;20015;-70
2021/06/10 00:27:20;;;;;;;6.57;4.22;;;;;;;18.34;63.51;99260.44;5113993;28;20035;-70
2021/06/10 00:29:47;;;;;;;6.70;4.80;;;;;;;18.53;63.20;99265.00;5113363;28;20092;-70
2021/06/10 00:32:13;;;;;;;5.43;4.85;;;;;;;18.74;62.44;99269.97;5113857;28;20401;-70
2021/06/10 00:34:39;;;;;;;6.10;4.13;;;;;;;18.88;61.85;99265.59;5111738;28;20016;-71
2021/06/10 00:37:05;;;;;;;8.43;4.00;;;;;;;19.01;61.11;99264.09;5113715;28;20031;-70
2021/06/10 00:39:31;;;;;;;5.97;4.75;;;;;;;19.16;60.32;99256.44;5112995;28;20432;-70
2021/06/10 00:41:56;;;;;;;23.40;5.57;;;;;;;19.20;60.00;99247.97;5112189;28;20481;-70
2021/06/10 00:44:21;;;;;;;6.45;4.28;;;;;;;18.93;60.76;99251.06;5112117;28;20093;-70
2021/06/10 00:46:47;;;;;;;4.63;4.22;;;;;;;18.79;61.26;99246.97;5113111;28;20055;-70
2021/06/10 00:49:12;;;;;;;6.28;4.72;;;;;;;18.86;61.04;99245.34;5113085;28;20015;-70
2021/06/10 00:51:39;;;;;;;4.57;4.18;;;;;;;18.88;60.72;99245.75;5111649;28;20039;-71
2021/06/10 00:54:05;;;;;;;6.78;4.45;;;;;;;18.82;60.90;99245.34;5113037;28;20023;-70
2021/06/10 00:56:30;;;;;;;4.93;4.38;;;;;;;18.46;61.70;99239.47;5112704;28;20032;-70
2021/06/10 00:58:56;;;;;;;6.45;4.43;;;;;;;18.55;61.81;99236.31;5112818;28;20043;-70
2021/06/10 01:01:22;;;;;;;7.63;4.40;;;;;;;18.40;62.24;99244.69;5113029;28;20049;-70
2021/06/10 01:03:47;;;;;;;15.32;5.30;;;;;;;18.45;62.07;99237.84;5112674;28;20024;-71
2021/06/10 01:06:28;;;;;;;7.82;4.53;;;;;;;18.37;62.39;99234.97;5111511;28;20036;-70
2021/06/10 01:09:18;;;;;;;7.35;5.07;;;;;;;18.40;62.36;99227.69;5111205;28;20079;-70
2021/06/10 01:11:59;;;;;;;5.03;4.53;;;;;;;18.50;61.88;99224.13;5112721;28;20058;-70
2021/06/10 01:14:40;;;;;;;13.95;5.10;;;;;;;18.56;61.77;99220.94;5111185;28;20031;-70
2021/06/10 01:17:06;;;;;;;6.05;4.63;;;;;;;18.55;61.58;99220.09;5111405;28;20039;-70
2021/06/10 01:20:05;;;;;;;7.72;5.50;;;;;;;18.06;63.18;99228.69;5112297;28;20209;-70
2021/06/10 01:22:40;;;;;;;7.07;5.10;;;;;;;17.82;63.98;99219.56;5110985;28;20035;-70
2021/06/10 01:25:30;;;;;;;5.18;4.68;;;;;;;17.54;64.90;99211.63;5112635;28;20051;-70
2021/06/10 01:27:58;;;;;;;7.93;5.10;;;;;;;17.73;64.37;99221.88;5112124;28;20026;-70
2021/06/10 01:30:28;;;;;;;6.20;5.10;;;;;;;17.19;65.80;99221.34;5112248;28;20515;-70
2021/06/10 01:32:58;;;;;;;8.57;5.53;;;;;;;17.15;66.50;99221.31;5112325;28;20180;-70
2021/06/10 01:35:26;;;;;;;17.90;5.57;;;;;;;17.40;65.58;99218.75;5112203;28;20101;-70
2021/06/10 01:37:55;;;;;;;11.23;4.97;;;;;;;17.60;64.85;99223.38;5111652;28;20089;-70
2021/06/10 01:40:26;;;;;;;9.55;5.10;;;;;;;17.77;64.30;99228.41;5103783;28;20047;-70
2021/06/10 01:42:54;;;;;;;10.13;5.38;;;;;;;17.77;63.65;99222.75;5111497;28;20485;-70
2021/06/10 01:45:21;;;;;;;8.30;5.57;;;;;;;17.89;63.23;99220.84;5111657;28;20054;-70
2021/06/10 01:47:47;;;;;;;9.32;5.68;;;;;;;17.98;63.19;99220.50;5111668;28;20022;-70
2021/06/10 01:50:15;;;;;;;7.85;4.57;;;;;;;18.07;62.65;99229.50;5111698;28;20037;-70
2021/06/10 01:52:43;;;;;;;12.95;5.50;;;;;;;18.14;62.25;99223.88;5111759;28;20038;-70
2021/06/10 01:55:12;;;;;;;8.35;5.60;;;;;;;18.13;62.12;99236.41;5111128;28;20059;-70
2021/06/10 01:57:39;;;;;;;5.25;4.75;;;;;;;18.01;62.53;99234.69;5111524;28;20417;-70
2021/06/10 02:00:11;;;;;;;5.03;4.50;;;;;;;17.89;62.96;99235.78;5111371;28;20501;-70
2021/06/10 02:02:37;;;;;;;6.18;5.28;;;;;;;17.66;63.96;99230.31;5111632;28;20036;-70
2021/06/10 02:05:06;;;;;;;12.43;5.22;;;;;;;17.67;63.89;99232.75;5110159;28;20037;-70
2021/06/10 02:07:35;;;;;;;6.43;5.50;;;;;;;17.68;63.89;99227.91;5111406;28;20106;-70
2021/06/10 02:10:02;;;;;;;10.55;5.15;;;;;;;17.82;63.56;99225.22;5111557;28;20031;-70
2021/06/10 02:12:28;;;;;;;6.68;5.00;;;;;;;17.93;63.49;99225.31;5111209;28;20052;-70
2021/06/10 02:14:54;;;;;;;6.47;5.40;;;;;;;18.00;63.05;99235.06;5111275;28;20043;-70
2021/06/10 02:17:20;;;;;;;10.55;5.18;;;;;;;18.08;62.61;99240.41;5111626;28;20031;-70
2021/06/10 02:19:45;;;;;;;7.60;6.45;;;;;;;18.09;62.39;99227.88;5111615;27;20028;-70
2021/06/10 02:22:12;;;;;;;12.95;5.95;;;;;;;17.88;62.74;99234.16;5108653;28;20508;-70
2021/06/10 02:24:38;;;;;;;9.63;5.30;;;;;;;17.52;63.94;99231.81;5099547;28;20035;-70
2021/06/10 02:27:04;;;;;;;9.02;5.82;;;;;;;17.26;65.08;99229.91;5094422;28;20045;-70
2021/06/10 02:29:29;;;;;;;8.48;5.75;;;;;;;17.38;64.95;99229.63;5099763;28;20505;-70
2021/06/10 02:31:55;;;;;;;8.73;5.78;;;;;;;17.26;65.31;99221.44;5095905;28;20032;-70
2021/06/10 02:34:20;;;;;;;8.27;6.20;;;;;;;17.28;65.70;99229.53;5097766;28;20039;-70
2021/06/10 02:36:46;;;;;;;7.63;6.10;;;;;;;17.15;66.06;99226.97;5097961;28;20020;-69
2021/06/10 02:39:16;;;;;;;13.05;6.35;;;;;;;17.22;65.96;99227.03;5094171;28;20497;-70
2021/06/10 02:41:47;;;;;;;9.18;7.00;;;;;;;17.29;65.44;99225.50;5099095;28;20053;-70
2021/06/10 02:44:13;;;;;;;19.40;7.15;;;;;;;17.28;65.20;99224.69;5095261;28;20024;-70
2021/06/10 02:46:41;;;;;;;16.40;7.72;;;;;;;17.36;65.10;99231.22;5099831;28;20043;-70
2021/06/10 02:49:09;;;;;;;18.35;7.57;;;;;;;17.47;64.95;99232.16;5102459;28;20015;-70
2021/06/10 02:51:36;;;;;;;10.40;6.15;;;;;;;17.57;64.30;99239.13;5110892;28;20479;-69
2021/06/10 02:54:05;;;;;;;13.45;6.60;;;;;;;17.48;64.61;99230.94;5109596;28;20028;-70
2021/06/10 02:56:31;;;;;;;14.52;7.50;;;;;;;17.15;65.27;99238.28;5110868;28;20039;-70
2021/06/10 02:59:00;;;;;;;8.25;6.00;;;;;;;17.14;65.14;99227.34;5110730;28;20027;-70
2021/06/10 03:01:26;;;;;;;19.02;6.63;;;;;;;17.18;64.95;99236.66;5110807;28;20032;-70
2021/06/10 03:03:52;;;;;;;15.10;5.75;;;;;;;17.04;64.93;99243.78;5109458;28;20027;-70
2021/06/10 03:06:18;;;;;;;11.25;6.05;;;;;;;16.95;65.48;99251.69;5111246;28;20056;-69
2021/06/10 03:08:50;;;;;;;21.63;6.30;;;;;;;16.75;65.78;99253.88;5114804;28;20076;-70
2021/06/10 03:11:16;;;;;;;17.33;5.45;;;;;;;16.53;66.62;99247.91;5108974;28;20386;-70
2021/06/10 03:13:44;;;;;;;12.95;6.10;;;;;;;16.36;67.29;99258.56;5106769;28;20019;-70
2021/06/10 03:16:10;;;;;;;11.40;7.00;;;;;;;16.14;67.82;99260.25;5106126;28;20114;-69
2021/06/10 03:18:37;;;;;;;12.82;6.63;;;;;;;16.16;67.98;99257.84;5099378;28;20036;-72
2021/06/10 03:21:03;;;;;;;10.93;6.00;;;;;;;16.30;67.30;99257.28;5104605;28;20115;-72
2021/06/10 03:23:29;;;;;;;10.57;5.95;;;;;;;16.25;67.42;99255.59;5101581;28;20111;-70
2021/06/10 03:25:55;;;;;;;10.50;6.57;;;;;;;16.14;67.95;99261.03;5102004;28;20072;-70
2021/06/10 03:28:24;;;;;;;11.70;6.45;;;;;;;16.13;68.28;99252.97;5096506;28;20103;-70
2021/06/10 03:30:50;;;;;;;11.80;6.67;;;;;;;15.96;69.00;99246.63;5096346;28;20031;-72
2021/06/10 03:33:16;;;;;;;15.63;6.32;;;;;;;16.08;69.20;99256.09;5096291;28;20055;-71
2021/06/10 03:35:44;;;;;;;10.30;6.90;;;;;;;16.11;68.76;99255.38;5100858;28;20042;-72
2021/06/10 03:38:13;;;;;;;21.42;7.45;;;;;;;15.95;69.76;99247.03;5102024;28;20020;-72
2021/06/10 03:40:39;;;;;;;11.10;7.55;;;;;;;16.03;69.41;99251.56;5113566;28;20039;-72
2021/06/10 03:43:05;;;;;;;17.30;8.10;;;;;;;15.74;70.79;99256.72;5110956;28;20020;-70
2021/06/10 03:45:31;;;;;;;14.75;8.50;;;;;;;15.90;70.34;99252.97;5110155;28;20458;-70
2021/06/10 03:47:58;;;;;;;11.90;9.38;;;;;;;16.12;69.68;99249.31;5106964;28;20035;-71
2021/06/10 03:50:30;;;;;;;12.55;10.30;;;;;;;16.35;69.08;99254.13;5114255;28;20493;-71
2021/06/10 03:52:55;;;;;;;14.73;9.10;;;;;;;16.40;68.50;99250.94;5114022;28;20027;-70
2021/06/10 03:55:21;;;;;;;8.18;7.38;;;;;;;16.56;68.13;99256.44;5114255;28;20034;-69
2021/06/10 03:57:47;;;;;;;9.55;7.82;;;;;;;16.82;67.27;99249.13;5108152;28;20497;-72
2021/06/10 04:00:13;;;;;;;14.77;7.93;;;;;;;17.04;66.71;99251.47;5099257;28;20039;-70
2021/06/10 04:02:39;;;;;;;12.25;7.05;;;;;;;17.21;66.13;99245.19;5102735;28;20031;-70
2021/06/10 04:05:05;;;;;;;10.50;6.80;;;;;;;17.39;65.33;99245.41;5105225;28;20023;-72
2021/06/10 04:07:31;;;;;;;11.00;7.53;;;;;;;17.50;64.97;99237.06;5108944;28;20043;-70
2021/06/10 04:09:56;;;;;;;10.52;6.97;;;;;;;17.53;65.19;99241.91;5100524;27;20117;-72
2021/06/10 04:12:22;;;;;;;8.45;6.38;;;;;;;17.71;64.77;99241.28;5107230;28;20050;-71
2021/06/10 04:14:47;;;;;;;9.85;8.10;;;;;;;17.57;65.24;99229.81;5107955;28;20053;-72
2021/06/10 04:17:13;;;;;;;11.57;7.97;;;;;;;17.52;65.59;99229.00;5102097;28;20035;-71
2021/06/10 04:19:38;;;;;;;12.25;7.47;;;;;;;17.46;65.60;99236.19;5104316;28;20038;-71
2021/06/10 04:22:04;;;;;;;15.32;7.55;;;;;;;17.58;66.12;99237.09;5103095;28;20655;-71
2021/06/10 04:24:29;;;;;;;13.55;7.50;;;;;;;17.64;65.69;99229.91;5098256;28;20027;-72
2021/06/10 04:26:55;;;;;;;12.80;8.38;;;;;;;17.70;66.10;99236.03;5106879;28;20493;-71
2021/06/10 04:29:20;;;;;;;9.63;7.90;;;;;;;17.80;65.50;99240.97;5106646;28;20643;-71
2021/06/10 04:31:46;;;;;;;14.48;8.30;;;;;;;17.89;65.61;99240.63;5113320;27;20100;-71
2021/06/10 04:34:11;;;;;;;13.88;8.55;;;;;;;17.85;65.76;99245.44;5112821;28;20103;-71
2021/06/10 04:36:37;;;;;;;12.95;7.97;;;;;;;17.78;66.51;99238.53;5113320;28;20417;-71
2021/06/10 04:39:04;;;;;;;13.73;8.07;;;;;;;17.95;66.29;99239.06;5102451;28;20050;-71
2021/06/10 04:41:29;;;;;;;9.98;7.45;;;;;;;17.97;66.03;99242.31;5110479;28;20124;-71
2021/06/10 04:43:54;;;;;;;14.85;7.38;;;;;;;18.05;65.74;99235.53;5110466;28;20603;-71
2021/06/10 04:46:20;;;;;;;8.98;7.20;;;;;;;18.02;65.75;99236.31;5113359;28;20035;-71
2021/06/10 04:48:45;;;;;;;13.60;7.78;;;;;;;18.12;65.81;99234.00;5112774;28;20454;-71
2021/06/10 04:51:11;;;;;;;11.80;7.82;;;;;;;18.20;65.73;99227.16;5112848;28;20031;-71
2021/06/10 04:53:37;;;;;;;15.15;9.65;;;;;;;18.28;65.58;99228.00;5112589;28;20027;-71
2021/06/10 04:56:02;;;;;;;23.45;8.75;;;;;;;18.44;65.93;99227.72;5110959;28;20032;-71
2021/06/10 04:58:28;;;;;;;16.33;8.77;;;;;;;18.54;66.12;99229.81;5112335;28;20144;-71
2021/06/10 05:00:53;;;;;;;14.27;8.07;;;;;;;18.52;65.78;99230.22;5112641;28;20058;-71
2021/06/10 05:03:22;;;;;;;9.52;8.30;;;;;;;18.60;65.52;99231.06;5112249;27;20500;-71
2021/06/10 05:05:49;;;;;;;12.68;8.05;;;;;;;18.69;65.21;99229.88;5112353;28;20043;-71
2021/06/10 05:08:15;;;;;;;17.63;8.45;;;;;;;18.81;65.76;99238.03;5110199;28;20023;-71
2021/06/10 05:10:40;;;;;;;10.18;7.82;;;;;;;18.81;65.62;99238.03;5102293;28;20680;-70
2021/06/10 05:13:06;;;;;;;17.95;7.57;;;;;;;18.87;65.51;99238.47;5098447;28;20133;-71
2021/06/10 05:15:31;;;;;;;11.27;7.70;;;;;;;18.88;65.33;99237.25;5099681;28;20417;-72
2021/06/10 05:17:56;;;;;;;11.38;7.50;;;;;;;19.02;65.10;99239.38;5101161;28;20501;-71
2021/06/10 05:20:23;;;;;;;14.60;7.97;;;;;;;19.03;64.86;99236.16;5100783;28;20071;-69
2021/06/10 05:22:49;;;;;;;12.05;7.45;;;;;;;19.17;65.21;99223.25;5103106;28;20027;-70
2021/06/10 05:25:14;;;;;;;15.30;7.35;;;;;;;19.35;64.10;99231.81;5098713;28;20468;-69
2021/06/10 05:27:41;;;;;;;13.48;7.25;;;;;;;19.42;63.71;99233.84;5103666;28;20038;-69
2021/06/10 05:30:07;;;;;;;8.85;6.60;;;;;;;19.55;63.46;99235.09;5094906;28;20074;-70
2021/06/10 05:32:33;;;;;;;7.63;6.57;;;;;;;19.68;63.38;99220.53;5100752;28;20444;-69
2021/06/10 05:34:58;;;;;;;15.40;6.50;;;;;;;19.88;61.80;99218.09;5096943;28;20054;-69
2021/06/10 05:37:24;;;;;;;8.05;6.93;;;;;;;19.92;60.73;99213.25;5095447;28;20434;-70
2021/06/10 05:39:49;;;;;;;9.60;6.68;;;;;;;19.98;59.61;99217.34;5100143;28;20492;-69
2021/06/10 05:42:16;;;;;;;10.38;6.25;;;;;;;19.96;59.28;99216.94;5105204;28;20516;-69
2021/06/10 05:44:42;;;;;;;10.77;7.22;;;;;;;20.05;60.02;99223.03;5107948;28;20043;-70
2021/06/10 05:47:08;;;;;;;14.23;7.45;;;;;;;20.20;59.61;99223.00;5103198;28;20039;-70
2021/06/10 05:49:34;;;;;;;11.15;6.10;;;;;;;20.28;58.42;99224.63;5107723;28;20493;-70
2021/06/10 05:52:00;;;;;;;11.65;5.82;;;;;;;20.53;57.32;99229.44;5112234;28;20028;-69
2021/06/10 05:54:25;;;;;;;9.88;6.63;;;;;;;20.62;56.31;99229.03;5110834;28;20032;-69
2021/06/10 05:56:51;;;;;;;8.38;5.45;;;;;;;20.68;55.94;99232.25;5103264;28;20027;-69
2021/06/10 05:59:17;;;;;;;8.52;6.38;;;;;;;20.81;56.22;99230.63;5091658;28;20031;-69
2021/06/10 06:01:42;;;;;;;8.48;5.85;;;;;;;20.85;55.39;99225.72;5096044;28;20028;-69
2021/06/10 06:04:08;;;;;;;13.50;6.75;;;;;;;20.82;55.02;99226.53;5104613;28;20012;-69
2021/06/10 06:06:33;;;;;;;7.80;6.05;;;;;;;21.08;55.00;99227.25;5096168;28;20448;-69
2021/06/10 06:08:59;;;;;;;12.38;5.75;;;;;;;21.10;54.40;99233.34;5094646;28;20024;-69
2021/06/10 06:11:24;;;;;;;7.13;6.40;;;;;;;21.18;54.59;99234.94;5092409;28;20471;-70
2021/06/10 06:13:55;;;;;;;6.53;5.30;;;;;;;21.12;53.96;99225.22;5094137;28;20016;-70
2021/06/10 06:16:21;;;;;;;7.75;6.95;;;;;;;21.29;55.13;99231.22;5102460;28;20032;-69
2021/06/10 06:18:47;;;;;;;9.48;6.18;;;;;;;21.44;54.48;99223.44;5107948;28;20031;-71
2021/06/10 06:21:13;;;;;;;7.25;5.80;;;;;;;21.56;52.95;99224.97;5109836;28;20536;-70
2021/06/10 06:23:41;;;;;;;5.88;5.28;;;;;;;21.62;51.89;99226.16;5103277;28;20107;-69
2021/06/10 06:26:09;;;;;;;6.60;5.60;;;;;;;21.58;52.56;99231.03;5103297;28;20024;-68
2021/06/10 06:28:35;;;;;;;8.93;5.85;;;;;;;21.66;52.18;99226.97;5100488;28;20028;-69
2021/06/10 06:31:01;;;;;;;7.00;5.97;;;;;;;21.82;52.66;99220.75;5096007;28;20035;-67
2021/06/10 06:33:26;;;;;;;5.90;5.28;;;;;;;22.04;50.56;99234.00;5094868;28;20027;-67
2021/06/10 06:35:52;;;;;;;6.93;6.22;;;;;;;22.10;49.83;99227.44;5095149;28;20039;-67
2021/06/10 06:38:18;;;;;;;10.77;5.80;;;;;;;22.14;49.48;99219.69;5104312;28;20024;-67
2021/06/10 06:40:43;;;;;;;15.00;6.35;;;;;;;22.18;49.64;99233.06;5101772;28;20275;-66
2021/06/10 06:43:11;;;;;;;10.32;5.90;;;;;;;22.28;50.17;99224.41;5100348;28;20528;-69
2021/06/10 06:45:37;;;;;;;5.93;5.30;;;;;;;22.26;50.30;99220.38;5089178;28;20036;-68
2021/06/10 06:48:03;;;;;;;11.88;5.00;;;;;;;22.44;50.40;99225.88;5106903;28;20507;-67
2021/06/10 06:50:29;;;;;;;11.77;6.13;;;;;;;22.53;49.86;99229.09;5104473;28;20047;-68
2021/06/10 06:52:54;;;;;;;9.52;5.05;;;;;;;22.54;49.67;99230.69;5099670;28;20055;-66
2021/06/10 06:55:20;;;;;;;10.93;5.90;;;;;;;22.61;50.60;99231.88;5092673;28;20070;-66
2021/06/10 06:57:46;;;;;;;7.97;5.47;;;;;;;22.95;49.83;99225.38;5091569;28;20028;-67
2021/06/10 07:00:11;;;;;;;9.88;7.25;;;;;;;23.08;48.87;99225.63;5092646;28;20035;-68
2021/06/10 07:02:37;;;;;;;7.68;5.95;;;;;;;23.20;48.72;99224.25;5101061;28;20032;-67
2021/06/10 07:05:03;;;;;;;7.28;6.18;;;;;;;23.35;49.01;99222.03;5098441;28;20028;-69
2021/06/10 07:07:28;;;;;;;9.48;5.90;;;;;;;23.32;48.97;99229.41;5100394;28;20038;-69
2021/06/10 07:09:54;;;;;;;7.43;5.55;;;;;;;23.12;49.53;99232.91;5095919;28;20305;-69
2021/06/10 07:12:19;;;;;;;7.55;6.47;;;;;;;23.23;49.45;99231.94;5098882;28;20024;-69
2021/06/10 07:14:44;;;;;;;10.85;6.07;;;;;;;23.48;48.86;99231.66;5095473;28;20024;-70
2021/06/10 07:17:11;;;;;;;13.07;6.10;;;;;;;23.67;49.90;99235.84;5100555;28;20036;-69
2021/06/10 07:19:40;;;;;;;12.18;5.90;;;;;;;23.87;48.98;99232.25;5101570;28;20125;-71
2021/06/10 07:22:08;;;;;;;23.30;6.32;;;;;;;24.01;48.08;99233.28;5101438;28;20027;-71
2021/06/10 07:24:33;;;;;;;7.57;5.85;;;;;;;24.08;47.95;99233.19;5106709;28;20122;-72
2021/06/10 07:26:58;;;;;;;6.13;5.50;;;;;;;24.35;46.86;99226.59;5106627;28;20416;-70
2021/06/10 07:29:24;;;;;;;7.80;6.10;;;;;;;24.43;47.03;99232.97;5104206;28;20038;-72
2021/06/10 07:31:49;;;;;;;7.13;5.30;;;;;;;24.36;46.11;99229.03;5097821;28;20024;-72
2021/06/10 07:34:15;;;;;;;5.63;5.13;;;;;;;24.25;46.29;99225.56;5101537;28;20405;-69
2021/06/10 07:36:40;;;;;;;7.95;6.10;;;;;;;24.21;47.17;99227.69;5099707;28;20485;-69
2021/06/10 07:39:09;;;;;;;7.88;6.30;;;;;;;24.34;47.03;99228.66;5093578;28;20634;-69
2021/06/10 07:41:36;;;;;;;6.32;5.65;;;;;;;24.49;46.83;99234.13;5108358;28;20382;-70
2021/06/10 07:44:02;;;;;;;6.95;5.25;;;;;;;24.61;46.93;99224.06;5106350;28;20020;-70
2021/06/10 07:46:28;;;;;;;7.47;5.63;;;;;;;24.86;45.90;99229.34;5102262;28;20498;-70
2021/06/10 07:48:53;;;;;;;11.10;5.15;;;;;;;25.00;44.75;99225.41;5105297;28;20024;-69
2021/06/10 07:51:19;;;;;;;7.32;5.78;;;;;;;25.13;43.74;99233.31;5107496;28;20032;-69
2021/06/10 07:53:44;;;;;;;8.43;5.88;;;;;;;25.28;43.71;99228.88;5110396;28;20020;-69
2021/06/10 07:56:10;;;;;;;17.73;5.47;;;;;;;25.40;44.31;99227.41;5107124;28;20036;-70
2021/06/10 07:58:35;;;;;;;5.50;5.00;;;;;;;25.50;42.96;99229.22;5100712;28;20031;-69
2021/06/10 08:01:03;;;;;;;7.90;4.80;;;;;;;25.38;41.89;99227.84;5095836;28;20409;-70
2021/06/10 08:03:29;;;;;;;4.25;3.95;;;;;;;25.53;41.35;99230.41;5099959;28;20107;-70
2021/06/10 08:05:56;;;;;;;6.90;4.20;;;;;;;25.64;41.51;99233.00;5098716;28;20127;-68
2021/06/10 08:08:23;;;;;;;5.93;5.25;;;;;;;25.85;40.51;99230.91;5098940;28;20161;-68
2021/06/10 08:10:49;;;;;;;6.78;6.03;;;;;;;25.81;38.22;99235.91;5106396;28;20386;-68
2021/06/10 08:13:17;;;;;;;7.03;4.05;;;;;;;25.58;40.35;99229.91;5106195;28;20019;-69
2021/06/10 08:15:42;;;;;;;4.25;3.38;;;;;;;25.96;38.15;99222.06;5101458;28;20114;-69
2021/06/10 08:18:07;;;;;;;3.72;3.10;;;;;;;26.07;38.63;99226.25;5113476;28;20114;-68
2021/06/10 08:20:33;;;;;;;3.58;2.90;;;;;;;25.94;38.83;99228.22;5113450;28;20481;-69
2021/06/10 08:23:00;;;;;;;4.30;3.22;;;;;;;25.88;39.31;99232.84;5104403;28;20469;-68
2021/06/10 08:25:29;;;;;;;4.22;3.60;;;;;;;25.77;40.02;99224.53;5111268;27;20048;-69
2021/06/10 08:28:00;;;;;;;5.07;3.17;;;;;;;25.84;38.29;99224.38;5111785;28;20024;-68
2021/06/10 08:30:26;;;;;;;5.28;2.92;;;;;;;25.93;37.77;99227.41;5113056;28;20128;-69
2021/06/10 08:32:51;;;;;;;11.27;3.92;;;;;;;26.19;37.14;99221.91;5103781;28;20024;-69
2021/06/10 08:35:18;;;;;;;3.95;3.45;;;;;;;26.17;38.84;99224.34;5106770;28;20023;-69
2021/06/10 08:37:44;;;;;;;5.40;3.38;;;;;;;26.45;37.60;99221.22;5110594;28;20102;-69
2021/06/10 08:40:10;;;;;;;4.15;3.70;;;;;;;26.25;39.95;99221.34;5112883;28;20135;-69
2021/06/10 08:42:37;;;;;;;6.68;3.95;;;;;;;26.35;40.02;99220.25;5105628;28;20649;-69
2021/06/10 08:45:07;;;;;;;9.30;4.45;;;;;;;26.89;37.41;99209.38;5111410;28;20416;-69
2021/06/10 08:47:33;;;;;;;;;;;;;;;27.14;36.03;99219.31;5112053;28;20044;-68
2021/06/10 08:50:00;;;;;;;3.90;3.47;;;;;;;27.24;36.23;99217.41;5105064;28;19916;-69
2021/06/10 08:52:26;;;;;;;6.22;3.90;;;;;;;27.09;34.60;99219.88;5110627;28;20065;-69
2021/06/10 08:54:52;;;;;;;4.00;3.50;;;;;;;27.03;36.40;99219.63;5110050;28;20029;-69
2021/06/10 08:57:17;;;;;;;6.80;3.42;;;;;;;26.81;38.23;99225.19;5111314;28;20027;-71
2021/06/10 08:59:42;;;;;;;4.55;3.22;;;;;;;26.96;37.16;99222.72;5103957;28;20043;-71
2021/06/10 09:02:11;;;;;;;7.60;3.22;;;;;;;26.74;36.47;99224.09;5110349;28;20051;-71
2021/06/10 09:04:36;;;;;;;9.13;3.22;;;;;;;26.67;36.38;99221.47;5104257;28;20072;-69
2021/06/10 09:07:04;;;;;;;10.63;3.80;;;;;;;26.56;37.45;99216.00;5107044;28;20526;-73
2021/06/10 09:09:48;;;;;;;16.75;3.67;;;;;;;26.77;38.09;99205.97;5098676;28;20059;-76
2021/06/10 09:12:15;;;;;;;8.73;3.85;;;;;;;27.07;36.75;99208.84;5108769;28;20027;-75
2021/06/10 09:15:02;;;;;;;6.45;4.10;;;;;;;27.22;38.06;99209.22;5105131;28;20114;-74
2021/06/10 09:17:34;;;;;;;6.07;3.33;;;;;;;27.31;36.18;99212.25;5092814;28;20521;-72
2021/06/10 09:20:01;;;;;;;7.95;4.40;;;;;;;27.40;36.95;99207.91;5108086;28;20027;-75
2021/06/10 09:22:35;;;;;;;5.78;3.80;;;;;;;27.51;37.46;99207.53;5098400;28;20035;-70
2021/06/10 09:25:09;;;;;;;5.30;3.60;;;;;;;27.56;36.63;99204.94;5093394;28;20032;-73
2021/06/10 09:27:55;;;;;;;4.70;3.00;;;;;;;27.82;35.31;99207.81;5097699;28;20032;-74
2021/06/10 09:30:33;;;;;;;6.88;3.80;;;;;;;28.16;35.54;99214.88;5090651;28;20024;-76
2021/06/10 09:33:00;;;;;;;4.45;3.00;;;;;;;28.14;36.02;99211.66;5108443;28;20043;-77
2021/06/10 09:35:34;;;;;;;4.03;2.85;;;;;;;28.18;33.12;99208.72;5098457;28;20101;-73
2021/06/10 09:38:03;;;;;;;4.35;3.08;;;;;;;28.22;34.41;99209.38;5101786;28;20027;-77
2021/06/10 09:40:29;;;;;;;2.90;2.70;;;;;;;28.43;34.06;99201.28;5107567;28;20051;-75
2021/06/10 09:42:56;;;;;;;7.97;3.08;;;;;;;28.78;33.06;99203.31;5093092;28;20043;-76
2021/06/10 09:45:26;;;;;;;2.95;2.75;;;;;;;28.68;31.37;99194.59;5106619;28;20031;-73
2021/06/10 09:47:53;;;;;;;5.88;3.25;;;;;;;28.58;33.75;99210.19;5109358;28;20420;-74
2021/06/10 09:50:46;;;;;;;3.50;3.20;;;;;;;28.06;36.00;99210.31;5105347;28;20020;-74
2021/06/10 09:53:20;;;;;;;6.18;3.45;;;;;;;27.76;35.30;99206.78;5106883;28;20031;-75
2021/06/10 09:55:52;;;;;;;8.65;3.28;;;;;;;27.77;34.70;99213.31;5104450;28;20035;-73
2021/06/10 09:58:34;;;;;;;7.38;3.30;;;;;;;27.49;36.43;99207.22;5110002;28;20039;-75
2021/06/10 10:01:13;;;;;;;4.47;3.33;;;;;;;27.50;35.69;99201.00;5110048;28;20031;-75
2021/06/10 10:03:41;;;;;;;10.02;3.40;;;;;;;27.97;35.89;99198.69;5104698;28;20443;-75
2021/06/10 10:06:17;;;;;;;4.03;2.55;;;;;;;27.88;35.18;99208.03;5105570;28;20024;-75
2021/06/10 10:08:43;;;;;;;3.10;2.90;;;;;;;27.80;37.25;99204.59;5097515;28;20083;-75
2021/06/10 10:11:11;;;;;;;10.15;3.45;;;;;;;27.95;37.72;99206.97;5109940;28;20120;-74
2021/06/10 10:13:39;;;;;;;5.05;3.55;;;;;;;28.02;36.80;99207.53;5106432;28;20080;-78
2021/06/10 10:16:05;;;;;;;5.28;3.95;;;;;;;28.22;37.00;99203.63;5097625;28;20042;-72
2021/06/10 10:18:31;;;;;;;9.07;3.55;;;;;;;28.25;36.50;99204.78;5106769;28;20688;-72
2021/06/10 10:21:06;;;;;;;14.18;2.80;;;;;;;27.80;36.36;99200.91;5108481;28;20028;-70
2021/06/10 10:23:33;;;;;;;26.75;3.42;;;;;;;27.02;38.20;99206.56;5102763;28;20110;-69
2021/06/10 10:26:01;;;;;;;5.40;2.70;;;;;;;26.52;38.39;99200.97;5109959;28;20122;-69
2021/06/10 10:28:33;;;;;;;9.35;2.80;;;;;;;26.45;37.76;99201.16;5110240;28;20051;-69
2021/06/10 10:31:00;;;;;;;5.55;2.72;;;;;;;26.36;38.02;99198.94;5105370;28;20024;-70
2021/06/10 10:33:26;;;;;;;4.95;3.03;;;;;;;26.69;37.33;99195.19;5088961;28;20505;-69
2021/06/10 10:35:53;;;;;;;3.65;2.22;;;;;;;27.22;36.81;99192.00;5104794;28;20082;-69
2021/06/10 10:38:30;;;;;;;6.03;2.70;;;;;;;27.49;38.42;99190.75;5103667;28;20030;-70
2021/06/10 10:41:00;;;;;;;10.40;2.78;;;;;;;28.07;36.03;99186.03;5107719;28;20070;-70
2021/06/10 10:43:27;;;;;;;9.50;2.53;;;;;;;28.33;36.41;99180.25;5102711;28;20031;-70
2021/06/10 10:46:18;;;;;;;6.90;3.35;;;;;;;28.55;33.55;99173.72;5101033;28;20141;-70
2021/06/10 10:48:46;;;;;;;4.10;2.25;;;;;;;28.49;33.33;99164.09;5099696;28;20082;-70
2021/06/10 10:51:29;;;;;;;5.43;2.50;;;;;;;28.66;34.84;99174.13;5108347;28;20035;-70
2021/06/10 10:54:00;;;;;;;3.17;2.17;;;;;;;28.76;32.36;99174.22;5098162;28;20035;-69
2021/06/10 10:56:42;;;;;;;6.85;2.05;;;;;;;28.93;31.70;99161.22;5108579;28;20084;-70
2021/06/10 10:59:14;;;;;;;2.30;2.08;;;;;;;28.72;31.41;99163.66;5104721;28;20032;-70
2021/06/10 11:01:40;;;;;;;2.30;2.10;;;;;;;28.92;31.06;99165.38;5108875;28;20031;-69
2021/06/10 11:04:06;;;;;;;7.80;2.50;;;;;;;28.99;33.48;99167.19;5106752;28;20020;-70
2021/06/10 11:06:34;;;;;;;2.70;1.85;;;;;;;29.06;32.12;99152.53;5109142;28;20070;-70
2021/06/10 11:12:05;;;;;;;5.15;2.83;;;;;;;29.02;32.10;99154.72;5100058;28;20046;-71
2021/06/10 11:14:53;;;;;;;2.55;2.35;;;;;;;28.90;32.96;99142.03;5099557;28;20023;-73
2021/06/10 11:17:22;;;;;;;7.15;3.00;;;;;;;28.83;33.91;99145.19;5109406;28;20024;-75
2021/06/10 11:20:07;;;;;;;5.50;2.13;;;;;;;29.03;32.76;99149.78;5107927;28;20127;-73
2021/06/10 11:22:50;;;;;;;4.80;2.55;;;;;;;28.97;31.94;99141.78;5108598;28;20550;-73
2021/06/10 11:25:22;;;;;;;2.92;2.58;;;;;;;28.90;32.02;99142.03;5108207;28;20028;-73
2021/06/10 11:27:49;;;;;;;2.35;2.15;;;;;;;28.99;31.91;99142.09;5111171;28;20396;-73
2021/06/10 11:30:21;;;;;;;2.80;2.33;;;;;;;29.04;30.84;99140.69;5113860;28;20024;-73
2021/06/10 11:33:00;;;;;;;2.30;2.20;;;;;;;28.94;32.91;99139.81;5102414;28;20040;-73
2021/06/10 11:35:34;;;;;;;3.63;2.38;;;;;;;28.88;33.29;99133.06;5108494;28;20028;-73
2021/06/10 11:38:03;;;;;;;3.95;2.10;;;;;;;29.08;33.19;99126.94;5112516;28;20080;-74